createdAt,value
2023-05-01T00:00:47.411Z,10.34
2023-05-01T00:03:49.532Z,10.43
2023-05-01T00:06:53.066Z,10.15
2023-05-01T00:09:55.358Z,10.54
2023-05-01T00:12:57.369Z,10.19
2023-05-01T00:15:59.348Z,10.28
2023-05-01T00:19:04.181Z,10.19
2023-05-01T00:22:07.653Z,10.11
2023-05-01T00:25:12.380Z,10.34
2023-05-01T00:28:14.274Z,10.25
2023-05-01T00:31:16.199Z,10.54
2023-05-01T00:34:18.107Z,10.38
2023-05-01T00:37:21.474Z,10.57
2023-05-01T00:40:23.410Z,10.74
2023-05-01T00:43:25.382Z,10.54
2023-05-01T00:46:28.596Z,10.41
2023-05-01T00:49:30.671Z,10.33
2023-05-01T00:52:34.432Z,10.37
2023-05-01T00:55:37.350Z,9.94
2023-05-01T00:58:40.430Z,9.91
2023-05-01T01:01:42.902Z,9.82
2023-05-01T01:04:46.738Z,9.67
2023-05-01T01:07:58.245Z,9.65
2023-05-01T01:11:21.693Z,9.44
2023-05-01T01:14:33.144Z,9.89
2023-05-01T01:17:42.556Z,9.65
2023-05-01T01:20:50.061Z,9.53
2023-05-01T01:24:18.433Z,9.93
2023-05-01T01:27:42.923Z,10.06
2023-05-01T01:31:06.373Z,10.05
2023-05-01T01:34:17.688Z,10.04
2023-05-01T01:37:24.273Z,9.82
2023-05-01T01:40:33.506Z,9.67
2023-05-01T01:43:40.297Z,9.93
2023-05-01T01:46:43.309Z,9.62
2023-05-01T01:49:50.118Z,9.88
2023-05-01T01:52:54.169Z,9.46
2023-05-01T01:55:58.193Z,9.56
2023-05-01T01:59:02.001Z,9.42
2023-05-01T02:02:05.702Z,9.51
2023-05-01T02:05:12.569Z,9.76
2023-05-01T02:08:16.007Z,9.66
2023-05-01T02:11:21.214Z,9.76
2023-05-01T02:14:26.652Z,9.96
2023-05-01T02:17:29.399Z,9.80
2023-05-01T02:20:33.704Z,10.03
2023-05-01T02:23:36.520Z,9.80
2023-05-01T02:26:42.773Z,9.62
2023-05-01T02:29:44.913Z,9.61
2023-05-01T02:32:46.897Z,9.52
2023-05-01T02:35:50.335Z,9.81
2023-05-01T02:38:52.515Z,10.16
2023-05-01T02:41:56.103Z,9.90
2023-05-01T02:45:03.101Z,10.16
2023-05-01T02:48:07.445Z,10.12
2023-05-01T02:51:11.883Z,10.31
2023-05-01T02:54:14.441Z,10.60
2023-05-01T02:57:18.199Z,10.28
2023-05-01T03:00:20.898Z,10.20
2023-05-01T03:03:23.040Z,10.38
2023-05-01T03:06:29.167Z,10.21
2023-05-01T03:09:31.711Z,10.07
2023-05-01T03:12:33.955Z,10.60
2023-05-01T03:15:35.932Z,10.31
2023-05-01T03:18:37.925Z,10.08
2023-05-01T03:21:41.396Z,9.85
2023-05-01T03:24:43.377Z,9.61
2023-05-01T03:27:45.285Z,9.63
2023-05-01T03:30:47.511Z,9.44
2023-05-01T03:33:50.180Z,9.32
2023-05-01T03:36:54.464Z,9.35
2023-05-01T03:39:57.141Z,9.26
2023-05-01T03:42:59.381Z,9.26
2023-05-01T03:46:04.355Z,9.52
2023-05-01T03:49:08.539Z,9.10
2023-05-01T03:52:12.708Z,9.18
2023-05-01T03:55:14.833Z,9.43
2023-05-01T03:58:16.812Z,9.25
2023-05-01T04:01:21.597Z,9.41
2023-05-01T04:04:23.665Z,9.27
2023-05-01T04:07:27.290Z,9.76
2023-05-01T04:10:29.267Z,9.54
2023-05-01T04:13:31.488Z,9.59
2023-05-01T04:16:33.681Z,10.00
2023-05-01T04:19:35.908Z,10.15
2023-05-01T04:22:39.182Z,10.65
2023-05-01T04:25:41.134Z,10.49
2023-05-01T04:28:43.229Z,10.90
2023-05-01T04:31:45.257Z,10.63
2023-05-01T04:34:47.221Z,10.89
2023-05-01T04:37:50.757Z,11.05
2023-05-01T04:40:52.725Z,11.24
2023-05-01T04:43:54.655Z,11.37
2023-05-01T04:46:56.724Z,11.62
2023-05-01T04:49:58.825Z,11.57
2023-05-01T04:53:02.093Z,11.63
2023-05-01T04:56:04.365Z,11.68
2023-05-01T04:59:06.432Z,11.75
2023-05-01T05:02:09.047Z,11.95
2023-05-01T05:05:11.068Z,11.92
2023-05-01T05:08:14.413Z,12.03
2023-05-01T05:11:16.365Z,12.02
2023-05-01T05:14:18.411Z,12.43
2023-05-01T05:17:20.269Z,12.40
2023-05-01T05:20:22.312Z,12.22
2023-05-01T05:23:25.747Z,12.22
2023-05-01T05:26:28.222Z,12.29
2023-05-01T05:29:30.145Z,12.46
2023-05-01T05:32:32.341Z,12.56
2023-05-01T05:35:34.320Z,12.53
2023-05-01T05:38:38.023Z,12.60
2023-05-01T05:41:40.054Z,12.64
2023-05-01T05:44:41.951Z,12.56
2023-05-01T05:47:44.022Z,12.59
2023-05-01T05:50:45.996Z,12.95
2023-05-01T05:53:49.798Z,12.80
2023-05-01T05:56:51.811Z,13.15
2023-05-01T05:59:54.664Z,13.02
2023-05-01T06:02:56.838Z,12.15
2023-05-01T06:05:59.257Z,11.77
2023-05-01T06:09:03.841Z,11.93
2023-05-01T06:12:06.272Z,12.15
2023-05-01T06:15:09.187Z,11.72
2023-05-01T06:18:12.015Z,11.77
2023-05-01T06:21:14.049Z,12.29
2023-05-01T06:24:17.632Z,12.31
2023-05-01T06:27:19.532Z,12.24
2023-05-01T06:30:22.100Z,12.89
2023-05-01T06:33:24.168Z,13.13
2023-05-01T06:36:26.215Z,13.50
2023-05-01T06:39:31.873Z,14.07
2023-05-01T06:42:33.840Z,14.57
2023-05-01T06:45:35.979Z,14.27
2023-05-01T06:48:37.922Z,14.46
2023-05-01T06:51:39.888Z,14.24
2023-05-01T06:54:43.333Z,14.35
2023-05-01T06:57:45.415Z,14.39
2023-05-01T07:00:47.896Z,14.53
2023-05-01T07:03:49.771Z,13.70
2023-05-01T07:06:51.848Z,13.46
2023-05-01T07:09:55.650Z,13.68
2023-05-01T07:12:57.954Z,13.86
2023-05-01T07:15:59.983Z,13.57
2023-05-01T07:19:02.085Z,13.79
2023-05-01T07:22:04.853Z,13.81
2023-05-01T07:25:09.479Z,13.94
2023-05-01T07:28:11.604Z,14.19
2023-05-01T07:31:13.617Z,13.98
2023-05-01T07:34:17.700Z,14.35
2023-05-01T07:37:19.698Z,14.27
2023-05-01T07:40:23.058Z,14.55
2023-05-01T07:43:26.769Z,14.59
2023-05-01T07:46:28.855Z,14.06
2023-05-01T07:49:35.379Z,14.57
2023-05-01T07:52:37.913Z,14.85
2023-05-01T07:55:41.764Z,15.22
2023-05-01T07:58:44.190Z,15.54
2023-05-01T08:01:46.130Z,15.37
2023-05-01T08:04:48.517Z,14.64
2023-05-01T08:07:50.523Z,15.17
2023-05-01T08:10:54.832Z,15.60
2023-05-01T08:13:56.835Z,15.47
2023-05-01T08:16:58.797Z,15.19
2023-05-01T08:20:00.894Z,15.98
2023-05-01T08:23:03.160Z,15.80
2023-05-01T08:26:09.761Z,15.46
2023-05-01T08:29:12.013Z,15.81
2023-05-01T08:32:14.796Z,16.15
2023-05-01T08:35:16.933Z,16.49
2023-05-01T08:38:18.918Z,16.48
2023-05-01T08:41:23.054Z,16.49
2023-05-01T08:44:26.704Z,16.60
2023-05-01T08:47:30.661Z,16.73
2023-05-01T08:50:36.539Z,16.48
2023-05-01T08:53:39.404Z,16.45
2023-05-01T08:56:44.734Z,17.02
2023-05-01T08:59:51.184Z,16.78
2023-05-01T09:02:53.241Z,16.89
2023-05-01T09:05:55.393Z,16.80
2023-05-01T09:08:57.829Z,17.31
2023-05-01T09:12:11.570Z,16.82
2023-05-01T09:15:13.906Z,17.57
2023-05-01T09:18:16.009Z,17.51
2023-05-01T09:21:18.279Z,17.37
2023-05-01T09:24:20.224Z,17.13
2023-05-01T09:27:24.050Z,18.00
2023-05-01T09:30:34.296Z,17.80
2023-05-01T09:33:54.191Z,18.07
2023-05-01T09:36:56.187Z,16.96
2023-05-01T09:40:04.487Z,17.42
2023-05-01T09:43:09.915Z,17.58
2023-05-01T09:46:13.331Z,17.60
2023-05-01T09:49:16.227Z,17.93
2023-05-01T09:52:18.262Z,18.57
2023-05-01T09:55:20.951Z,18.27
2023-05-01T09:58:33.006Z,17.60
2023-05-01T10:01:39.660Z,17.75
2023-05-01T10:04:41.953Z,17.80
2023-05-01T10:07:57.493Z,17.97
2023-05-01T10:11:05.362Z,18.45
2023-05-01T10:14:10.353Z,18.81
2023-05-01T10:17:19.979Z,18.35
2023-05-01T10:20:22.078Z,18.24
2023-05-01T10:23:25.524Z,18.16
2023-05-01T10:26:27.691Z,18.81
2023-05-01T10:29:32.135Z,19.07
2023-05-01T10:32:35.274Z,19.35
2023-05-01T10:35:40.716Z,19.32
2023-05-01T10:38:48.280Z,19.30
2023-05-01T10:42:03.939Z,19.22
2023-05-01T10:45:31.185Z,18.79
2023-05-01T10:48:58.025Z,19.75
2023-05-01T10:52:04.415Z,19.39
2023-05-01T10:55:34.870Z,19.92
2023-05-01T10:58:57.802Z,20.08
2023-05-01T11:02:24.026Z,19.74
2023-05-01T11:06:06.325Z,19.30
2023-05-01T11:09:39.358Z,19.94
2023-05-01T11:12:51.893Z,19.52
2023-05-01T11:15:54.230Z,19.56
2023-05-01T11:18:57.741Z,19.68
2023-05-01T11:22:02.761Z,20.09
2023-05-01T11:25:18.200Z,19.62
2023-05-01T11:28:21.687Z,19.91
2023-05-01T11:31:24.603Z,20.17
2023-05-01T11:34:28.599Z,19.19
2023-05-01T11:37:44.417Z,19.50
2023-05-01T11:40:54.107Z,19.56
2023-05-01T11:43:58.524Z,19.51
2023-05-01T11:47:02.329Z,19.30
2023-05-01T11:50:07.544Z,21.12
2023-05-01T11:53:11.984Z,19.96
2023-05-01T11:56:26.574Z,19.08
2023-05-01T11:59:30.681Z,20.19
2023-05-01T12:02:33.544Z,20.72
2023-05-01T12:05:39.289Z,20.46
2023-05-01T12:08:47.613Z,19.81
2023-05-01T12:11:52.810Z,20.99
2023-05-01T12:14:55.977Z,21.01
2023-05-01T12:17:59.070Z,19.91
2023-05-01T12:21:04.670Z,21.00
2023-05-01T12:24:10.647Z,20.69
2023-05-01T12:27:13.788Z,21.12
2023-05-01T12:30:25.346Z,21.16
2023-05-01T12:33:27.371Z,20.76
2023-05-01T12:36:33.219Z,21.06
2023-05-01T12:39:39.353Z,21.41
2023-05-01T12:42:41.633Z,20.65
2023-05-01T12:45:43.762Z,21.39
2023-05-01T12:48:46.089Z,20.95
2023-05-01T12:51:50.306Z,21.09
2023-05-01T12:55:02.407Z,21.05
2023-05-01T12:58:05.521Z,20.46
2023-05-01T13:01:07.588Z,20.97
2023-05-01T13:04:09.590Z,20.45
2023-05-01T13:07:15.140Z,20.62
2023-05-01T13:10:31.527Z,21.05
2023-05-01T13:13:36.006Z,21.66
2023-05-01T13:16:46.300Z,21.40
2023-05-01T13:19:54.589Z,21.15
2023-05-01T13:23:09.684Z,21.78
2023-05-01T13:26:11.874Z,22.34
2023-05-01T13:29:15.655Z,22.05
2023-05-01T13:32:18.011Z,22.36
2023-05-01T13:35:24.668Z,20.99
2023-05-01T13:38:29.249Z,21.71
2023-05-01T13:41:31.220Z,21.97
2023-05-01T13:44:33.256Z,22.22
2023-05-01T13:47:40.444Z,22.50
2023-05-01T13:50:43.000Z,21.68
2023-05-01T13:53:46.386Z,22.88
2023-05-01T13:56:48.479Z,22.10
2023-05-01T13:59:50.456Z,21.39
2023-05-01T14:02:54.175Z,21.93
2023-05-01T14:05:58.082Z,22.88
2023-05-01T14:09:01.607Z,22.36
2023-05-01T14:12:03.934Z,22.44
2023-05-01T14:15:09.587Z,22.26
2023-05-01T14:18:15.664Z,22.10
2023-05-01T14:21:18.828Z,22.02
2023-05-01T14:24:24.132Z,21.37
2023-05-01T14:27:26.203Z,21.55
2023-05-01T14:30:30.056Z,21.78
2023-05-01T14:33:33.738Z,21.46
2023-05-01T14:36:35.807Z,21.58
2023-05-01T14:39:39.665Z,21.35
2023-05-01T14:42:43.537Z,21.43
2023-05-01T14:45:48.210Z,21.51
2023-05-01T14:48:50.137Z,21.46
2023-05-01T14:51:54.073Z,21.13
2023-05-01T14:54:57.489Z,21.67
2023-05-01T14:57:59.534Z,21.17
2023-05-01T15:01:02.637Z,21.36
2023-05-01T15:04:07.677Z,20.94
2023-05-01T15:07:09.561Z,21.34
2023-05-01T15:10:13.105Z,21.21
2023-05-01T15:13:15.154Z,21.38
2023-05-01T15:16:17.365Z,21.08
2023-05-01T15:19:19.687Z,20.91
2023-05-01T15:22:21.767Z,20.93
2023-05-01T15:25:26.888Z,20.89
2023-05-01T15:28:29.207Z,20.72
2023-05-01T15:31:33.068Z,20.51
2023-05-01T15:34:35.031Z,20.58
2023-05-01T15:37:37.093Z,20.73
2023-05-01T15:40:43.270Z,20.43
2023-05-01T15:43:45.155Z,20.14
2023-05-01T15:46:48.658Z,20.33
2023-05-01T15:49:50.664Z,20.17
2023-05-01T15:52:52.850Z,20.14
2023-05-01T15:55:58.575Z,19.99
2023-05-01T15:59:02.446Z,19.89
2023-05-01T16:02:04.436Z,19.84
2023-05-01T16:05:08.656Z,19.57
2023-05-01T16:08:10.539Z,19.52
2023-05-01T16:11:14.014Z,19.50
2023-05-01T16:14:16.415Z,19.87
2023-05-01T16:17:19.772Z,19.47
2023-05-01T16:20:23.472Z,19.53
2023-05-01T16:23:26.774Z,19.43
2023-05-01T16:26:31.131Z,19.33
2023-05-01T16:29:33.466Z,19.31
2023-05-01T16:32:35.520Z,19.23
2023-05-01T16:35:40.632Z,19.44
2023-05-01T16:38:42.697Z,19.00
2023-05-01T16:41:46.970Z,19.26
2023-05-01T16:44:48.861Z,19.20
2023-05-01T16:47:53.702Z,18.90
2023-05-01T16:50:55.946Z,18.81
2023-05-01T16:53:57.961Z,18.78
2023-05-01T16:57:01.824Z,18.81
2023-05-01T17:00:05.421Z,19.13
2023-05-01T17:03:09.380Z,18.57
2023-05-01T17:06:11.639Z,18.37
2023-05-01T17:09:13.698Z,18.27
2023-05-01T17:12:17.563Z,18.35
2023-05-01T17:15:19.629Z,17.97
2023-05-01T17:18:21.713Z,17.81
2023-05-01T17:21:25.170Z,17.97
2023-05-01T17:24:27.726Z,17.79
2023-05-01T17:27:35.739Z,18.01
2023-05-01T17:30:37.726Z,17.65
2023-05-01T17:33:42.706Z,17.34
2023-05-01T17:36:44.923Z,16.67
2023-05-01T17:39:47.226Z,16.25
2023-05-01T17:42:50.920Z,16.10
2023-05-01T17:45:53.019Z,15.77
2023-05-01T17:48:55.072Z,15.73
2023-05-01T17:51:57.127Z,15.58
2023-05-01T17:54:59.710Z,16.11
2023-05-01T17:58:03.070Z,15.72
2023-05-01T18:01:08.979Z,15.38
2023-05-01T18:04:11.549Z,15.25
2023-05-01T18:07:14.380Z,14.80
2023-05-01T18:10:16.970Z,14.95
2023-05-01T18:13:28.288Z,15.30
2023-05-01T18:16:31.177Z,15.10
2023-05-01T18:19:33.428Z,15.22
2023-05-01T18:22:36.066Z,14.61
2023-05-01T18:25:39.883Z,14.62
2023-05-01T18:28:43.537Z,14.39
2023-05-01T18:31:46.006Z,14.28
2023-05-01T18:34:51.479Z,14.37
2023-05-01T18:37:54.499Z,14.27
2023-05-01T18:40:58.347Z,14.60
2023-05-01T18:44:02.705Z,14.08
2023-05-01T18:47:05.499Z,14.14
2023-05-01T18:50:10.416Z,13.92
2023-05-01T18:53:13.368Z,13.89
2023-05-01T18:56:17.234Z,13.80
2023-05-01T18:59:22.273Z,13.79
2023-05-01T19:02:25.193Z,13.56
2023-05-01T19:05:27.607Z,13.67
2023-05-01T19:08:32.566Z,13.34
2023-05-01T19:11:35.743Z,13.66
2023-05-01T19:14:39.510Z,13.62
2023-05-01T19:17:42.362Z,13.96
2023-05-01T19:20:46.573Z,13.87
2023-05-01T19:23:50.449Z,13.60
2023-05-01T19:26:53.312Z,13.72
2023-05-01T19:30:01.614Z,13.80
2023-05-01T19:33:05.001Z,13.45
2023-05-01T19:36:10.318Z,13.79
2023-05-01T19:39:13.098Z,13.71
2023-05-01T19:42:19.449Z,13.89
2023-05-01T19:45:22.950Z,13.52
2023-05-01T19:48:25.657Z,13.29
2023-05-01T19:51:30.646Z,13.68
2023-05-01T19:54:33.458Z,13.01
2023-05-01T19:57:35.658Z,12.92
2023-05-01T20:00:39.564Z,13.10
2023-05-01T20:03:41.955Z,13.41
2023-05-01T20:06:44.858Z,13.76
2023-05-01T20:09:47.963Z,13.84
2023-05-01T20:12:50.532Z,13.46
2023-05-01T20:15:53.960Z,13.46
2023-05-01T20:18:56.526Z,13.61
2023-05-01T20:21:58.606Z,13.63
2023-05-01T20:25:00.584Z,13.54
2023-05-01T20:28:04.676Z,13.90
2023-05-01T20:31:08.578Z,13.76
2023-05-01T20:34:10.716Z,14.06
2023-05-01T20:37:13.254Z,13.80
2023-05-01T20:40:16.933Z,13.44
2023-05-01T20:43:19.231Z,13.56
2023-05-01T20:46:23.184Z,13.74
2023-05-01T20:49:25.382Z,13.64
2023-05-01T20:52:27.930Z,13.05
2023-05-01T20:55:30.046Z,12.96
2023-05-01T20:58:32.101Z,12.74
2023-05-01T21:01:35.627Z,13.04
2023-05-01T21:04:41.633Z,12.96
2023-05-01T21:07:44.787Z,12.83
2023-05-01T21:10:46.669Z,12.94
2023-05-01T21:13:48.586Z,13.41
2023-05-01T21:16:52.088Z,13.14
2023-05-01T21:19:54.304Z,12.87
2023-05-01T21:22:56.311Z,12.74
2023-05-01T21:25:58.223Z,12.88
2023-05-01T21:29:00.659Z,12.93
2023-05-01T21:32:05.052Z,13.04
2023-05-01T21:35:08.092Z,12.52
2023-05-01T21:38:10.751Z,12.45
2023-05-01T21:41:14.094Z,12.36
2023-05-01T21:44:16.123Z,12.58
2023-05-01T21:47:19.598Z,12.73
2023-05-01T21:50:22.126Z,12.50
2023-05-01T21:53:24.491Z,12.23
2023-05-01T21:56:26.799Z,12.19
2023-05-01T21:59:34.067Z,12.07
2023-05-01T22:02:42.005Z,12.33
2023-05-01T22:05:44.031Z,12.25
2023-05-01T22:08:46.297Z,11.93
2023-05-01T22:11:48.264Z,11.91
2023-05-01T22:14:50.482Z,12.04
2023-05-01T22:17:53.904Z,12.35
2023-05-01T22:20:56.105Z,12.01
2023-05-01T22:23:58.073Z,11.99
2023-05-01T22:27:00.033Z,11.91
2023-05-01T22:30:02.601Z,11.97
2023-05-01T22:33:06.811Z,12.03
2023-05-01T22:36:08.778Z,11.89
2023-05-01T22:39:10.805Z,11.77
2023-05-01T22:42:12.858Z,11.69
2023-05-01T22:45:15.248Z,11.91
2023-05-01T22:48:18.846Z,11.77
2023-05-01T22:51:20.840Z,11.58
2023-05-01T22:54:22.801Z,11.50
2023-05-01T22:57:24.815Z,11.35
2023-05-01T23:00:27.087Z,11.56
2023-05-01T23:03:32.296Z,11.50
2023-05-01T23:06:34.284Z,11.79
2023-05-01T23:09:36.210Z,11.28
2023-05-01T23:12:42.680Z,11.66
2023-05-01T23:15:46.599Z,11.42
2023-05-01T23:18:49.931Z,10.99
2023-05-01T23:22:07.028Z,11.10
2023-05-01T23:25:13.853Z,11.31
2023-05-01T23:28:22.187Z,11.13
2023-05-01T23:31:27.914Z,11.48
2023-05-01T23:34:31.875Z,11.55
2023-05-01T23:37:33.754Z,11.50
2023-05-01T23:40:37.092Z,11.50
2023-05-01T23:43:39.569Z,11.47
2023-05-01T23:46:42.137Z,11.40
2023-05-01T23:49:45.619Z,11.43
2023-05-01T23:52:47.621Z,11.06
2023-05-01T23:55:49.663Z,11.21
2023-05-01T23:58:51.928Z,11.38
